Time;durP1;ratioP1;P1;durP2;ratioP2;P2;SDS_P1;SDS_P2;PMS_P1;PMS_P2;Temp;Humidity;BMP_temperature;BMP_pressure;BME280_temperature;BME280_humidity;BME280_pressure;Samples;Min_cycle;Max_cycle;Signal;HPM_P1;HPM_P2
2022/03/28 00:00:30;;;;;;;4.22;3.38;;;;;;;;;;4937359;29;20169;-60
2022/03/28 00:02:58;;;;;;;6.80;3.40;;;;;;;;;;4937368;29;20172;-60
2022/03/28 00:05:24;;;;;;;4.10;3.03;;;;;;;;;;4936929;29;20401;-59
2022/03/28 00:07:49;;;;;;;6.07;3.33;;;;;;;;;;4936535;29;20201;-60
2022/03/28 00:10:15;;;;;;;3.85;3.28;;;;;;;;;;4938458;29;20173;-60
2022/03/28 00:12:42;;;;;;;4.90;3.45;;;;;;;;;;4940392;29;20172;-60
2022/03/28 00:15:09;;;;;;;8.90;3.40;;;;;;;;;;4940344;29;20179;-61
2022/03/28 00:17:36;;;;;;;6.20;3.05;;;;;;;;;;4940426;29;20228;-61
2022/03/28 00:20:02;;;;;;;5.55;3.53;;;;;;;;;;4940191;29;20687;-60
2022/03/28 00:22:28;;;;;;;5.43;3.22;;;;;;;;;;4940363;29;20176;-60
2022/03/28 00:24:54;;;;;;;5.47;3.10;;;;;;;;;;4940857;29;20165;-60
2022/03/28 00:27:20;;;;;;;7.10;3.20;;;;;;;;;;4940256;29;20648;-60
2022/03/28 00:29:46;;;;;;;6.95;3.05;;;;;;;;;;4940181;29;20172;-60
2022/03/28 00:32:12;;;;;;;6.35;3.53;;;;;;;;;;4940462;29;20184;-60
2022/03/28 00:34:38;;;;;;;7.22;3.53;;;;;;;;;;4941007;29;20371;-61
2022/03/28 00:37:04;;;;;;;5.88;3.30;;;;;;;;;;4940854;29;20484;-60
2022/03/28 00:39:30;;;;;;;8.35;3.67;;;;;;;;;;4941086;29;20204;-61
2022/03/28 00:41:56;;;;;;;9.25;3.63;;;;;;;;;;4941143;29;20177;-60
2022/03/28 00:44:22;;;;;;;6.30;3.92;;;;;;;;;;4941474;29;20196;-61
2022/03/28 00:46:48;;;;;;;10.50;3.80;;;;;;;;;;4941372;29;20173;-60
2022/03/28 00:49:14;;;;;;;8.93;3.45;;;;;;;;;;4940610;29;20185;-61
2022/03/28 00:51:40;;;;;;;3.80;3.10;;;;;;;;;;4940045;29;20260;-60
2022/03/28 00:54:06;;;;;;;4.97;3.50;;;;;;;;;;4939612;29;20173;-61
2022/03/28 00:56:33;;;;;;;7.57;3.17;;;;;;;;;;4939751;29;20177;-61
2022/03/28 00:58:59;;;;;;;6.03;3.35;;;;;;;;;;4939328;29;20645;-61
2022/03/28 01:01:25;;;;;;;5.45;3.08;;;;;;;;;;4939418;29;20180;-61
2022/03/28 01:03:51;;;;;;;5.10;3.13;;;;;;;;;;4939597;29;20173;-61
2022/03/28 01:06:17;;;;;;;7.63;3.10;;;;;;;;;;4939540;29;20173;-61
2022/03/28 01:08:43;;;;;;;5.32;2.83;;;;;;;;;;4939502;29;20165;-61
2022/03/28 01:11:10;;;;;;;6.97;3.30;;;;;;;;;;4939336;29;20303;-61
2022/03/28 01:13:37;;;;;;;9.32;3.17;;;;;;;;;;4939354;29;20180;-61
2022/03/28 01:16:03;;;;;;;6.60;2.83;;;;;;;;;;4939328;29;20267;-61
2022/03/28 01:18:30;;;;;;;7.43;3.03;;;;;;;;;;4939268;29;20201;-61
2022/03/28 01:20:56;;;;;;;6.60;3.00;;;;;;;;;;4939002;29;20548;-60
2022/03/28 01:23:23;;;;;;;5.13;2.88;;;;;;;;;;4939270;29;20176;-60
2022/03/28 01:25:51;;;;;;;7.22;3.67;;;;;;;;;;4939150;29;20165;-61
2022/03/28 01:28:17;;;;;;;5.82;3.20;;;;;;;;;;4939364;29;20200;-59
2022/03/28 01:30:43;;;;;;;7.72;3.33;;;;;;;;;;4939195;29;20183;-60
2022/03/28 01:33:09;;;;;;;9.93;4.47;;;;;;;;;;4938936;29;20173;-60
2022/03/28 01:35:37;;;;;;;7.32;4.05;;;;;;;;;;4938780;29;20500;-60
2022/03/28 01:38:04;;;;;;;6.60;3.97;;;;;;;;;;4938754;29;20200;-60
2022/03/28 01:40:31;;;;;;;6.90;3.85;;;;;;;;;;4938733;29;20248;-60
2022/03/28 01:42:57;;;;;;;8.02;3.42;;;;;;;;;;4938908;29;20169;-59
2022/03/28 01:45:23;;;;;;;6.80;3.78;;;;;;;;;;4938701;29;20613;-60
2022/03/28 01:47:49;;;;;;;6.35;3.25;;;;;;;;;;4938708;29;20208;-60
2022/03/28 01:50:16;;;;;;;7.00;3.25;;;;;;;;;;4938836;29;20208;-61
2022/03/28 01:52:42;;;;;;;7.10;3.13;;;;;;;;;;4937501;29;20164;-61
2022/03/28 01:55:09;;;;;;;9.65;3.30;;;;;;;;;;4938325;29;20169;-61
2022/03/28 01:57:35;;;;;;;6.88;3.17;;;;;;;;;;4938617;29;20177;-61
2022/03/28 02:00:01;;;;;;;6.82;3.30;;;;;;;;;;4938610;29;20256;-60
2022/03/28 02:02:27;;;;;;;7.40;3.30;;;;;;;;;;4938555;29;20613;-61
2022/03/28 02:04:53;;;;;;;5.97;3.17;;;;;;;;;;4938267;29;20248;-61
2022/03/28 02:07:19;;;;;;;6.18;3.38;;;;;;;;;;4938585;29;20508;-61
2022/03/28 02:09:45;;;;;;;6.55;3.35;;;;;;;;;;4938260;29;20178;-61
2022/03/28 02:12:11;;;;;;;8.35;4.20;;;;;;;;;;4938246;29;20229;-60
2022/03/28 02:14:36;;;;;;;5.90;3.88;;;;;;;;;;4938079;29;20172;-61
2022/03/28 02:17:02;;;;;;;6.03;3.97;;;;;;;;;;4938321;29;20169;-60
2022/03/28 02:19:28;;;;;;;6.30;4.22;;;;;;;;;;4938362;29;20204;-59
2022/03/28 02:21:54;;;;;;;7.63;4.05;;;;;;;;;;4938008;29;20172;-59
2022/03/28 02:24:20;;;;;;;7.53;3.60;;;;;;;;;;4937765;29;20497;-58
2022/03/28 02:26:46;;;;;;;8.43;3.65;;;;;;;;;;4938174;29;20243;-59
2022/03/28 02:29:12;;;;;;;6.05;3.22;;;;;;;;;;4937960;29;20259;-59
2022/03/28 02:31:38;;;;;;;6.50;3.28;;;;;;;;;;4937744;29;20169;-60
2022/03/28 02:34:04;;;;;;;7.03;3.15;;;;;;;;;;4937856;29;20173;-60
2022/03/28 02:36:30;;;;;;;7.40;3.38;;;;;;;;;;4938197;29;20233;-61
2022/03/28 02:38:56;;;;;;;6.22;2.80;;;;;;;;;;4938588;29;20243;-60
2022/03/28 02:41:22;;;;;;;4.32;2.75;;;;;;;;;;4941914;29;20176;-61
2022/03/28 02:43:49;;;;;;;5.75;3.28;;;;;;;;;;4951795;29;20165;-61
2022/03/28 02:46:15;;;;;;;8.15;3.08;;;;;;;;;;4953798;29;20173;-61
2022/03/28 02:48:41;;;;;;;9.55;3.70;;;;;;;;;;4954128;29;20169;-61
2022/03/28 02:51:07;;;;;;;6.93;3.10;;;;;;;;;;4952183;29;20169;-60
2022/03/28 02:53:33;;;;;;;4.63;3.15;;;;;;;;;;4954172;29;20180;-61
2022/03/28 02:55:59;;;;;;;9.85;3.35;;;;;;;;;;4954380;29;20188;-61
2022/03/28 02:58:25;;;;;;;6.40;3.10;;;;;;;;;;4953691;29;20271;-60
2022/03/28 03:00:51;;;;;;;7.07;3.05;;;;;;;;;;4953503;29;20556;-60
2022/03/28 03:03:17;;;;;;;7.68;2.97;;;;;;;;;;4948862;29;20173;-61
2022/03/28 03:05:43;;;;;;;6.00;2.60;;;;;;;;;;4940556;29;20173;-61
2022/03/28 03:08:09;;;;;;;3.83;2.60;;;;;;;;;;4940205;29;20180;-61
2022/03/28 03:10:35;;;;;;;5.35;2.70;;;;;;;;;;4947448;29;20236;-61
2022/03/28 03:13:01;;;;;;;6.28;2.90;;;;;;;;;;4957523;29;20166;-61
2022/03/28 03:15:27;;;;;;;4.72;2.50;;;;;;;;;;4944447;29;20169;-61
2022/03/28 03:17:53;;;;;;;5.70;2.50;;;;;;;;;;4937107;29;20242;-61
2022/03/28 03:20:19;;;;;;;5.32;3.10;;;;;;;;;;4936969;29;20244;-61
2022/03/28 03:22:45;;;;;;;4.40;2.80;;;;;;;;;;4937066;29;20324;-60
2022/03/28 03:25:11;;;;;;;6.40;2.72;;;;;;;;;;4936953;29;20169;-60
2022/03/28 03:27:38;;;;;;;7.05;3.15;;;;;;;;;;4937573;29;20224;-60
2022/03/28 03:30:10;;;;;;;5.35;3.03;;;;;;;;;;4936789;29;20632;-61
2022/03/28 03:32:37;;;;;;;6.80;2.85;;;;;;;;;;4936883;29;20175;-61
2022/03/28 03:35:03;;;;;;;5.43;3.08;;;;;;;;;;4936678;29;20165;-61
2022/03/28 03:37:29;;;;;;;4.45;2.80;;;;;;;;;;4936832;29;20551;-61
2022/03/28 03:39:55;;;;;;;4.63;2.58;;;;;;;;;;4936827;29;20200;-61
2022/03/28 03:42:21;;;;;;;6.45;3.28;;;;;;;;;;4935842;29;20524;-61
2022/03/28 03:44:47;;;;;;;6.80;3.03;;;;;;;;;;4936444;29;20297;-61
2022/03/28 03:47:13;;;;;;;6.68;3.15;;;;;;;;;;4936646;29;20490;-61
2022/03/28 03:49:39;;;;;;;6.57;3.00;;;;;;;;;;4936718;29;20177;-61
2022/03/28 03:52:05;;;;;;;7.68;3.15;;;;;;;;;;4936680;29;20180;-61
2022/03/28 03:54:31;;;;;;;10.85;3.83;;;;;;;;;;4936987;29;20177;-61
2022/03/28 03:56:57;;;;;;;7.85;3.42;;;;;;;;;;4935545;29;20169;-60
2022/03/28 03:59:23;;;;;;;8.82;3.30;;;;;;;;;;4936496;29;20704;-60
2022/03/28 04:01:49;;;;;;;6.57;3.50;;;;;;;;;;4936627;29;20173;-60
2022/03/28 04:04:15;;;;;;;7.18;3.83;;;;;;;;;;4936616;29;20165;-60
2022/03/28 04:06:41;;;;;;;10.85;4.93;;;;;;;;;;4936425;29;20621;-60
2022/03/28 04:09:07;;;;;;;7.53;4.22;;;;;;;;;;4936565;29;20181;-60
2022/03/28 04:11:33;;;;;;;7.78;4.82;;;;;;;;;;4936268;29;20179;-60
2022/03/28 04:13:59;;;;;;;7.63;4.85;;;;;;;;;;4936317;29;20554;-60
2022/03/28 04:16:25;;;;;;;8.90;5.20;;;;;;;;;;4936346;29;20252;-59
2022/03/28 04:18:50;;;;;;;11.70;5.35;;;;;;;;;;4936087;29;20228;-60
2022/03/28 04:21:17;;;;;;;13.88;6.25;;;;;;;;;;4936134;29;20665;-60
2022/03/28 04:23:43;;;;;;;8.98;5.80;;;;;;;;;;4936664;29;20179;-60
2022/03/28 04:26:09;;;;;;;10.73;6.57;;;;;;;;;;4936769;29;20243;-61
2022/03/28 04:28:35;;;;;;;12.85;5.68;;;;;;;;;;4936359;29;20264;-61
2022/03/28 04:31:01;;;;;;;7.68;5.35;;;;;;;;;;4936335;29;20176;-61
2022/03/28 04:33:27;;;;;;;8.73;5.75;;;;;;;;;;4936030;29;20169;-61
2022/03/28 04:35:53;;;;;;;10.57;5.00;;;;;;;;;;4936044;29;20172;-61
2022/03/28 04:38:19;;;;;;;8.35;4.63;;;;;;;;;;4935911;29;20283;-61
2022/03/28 04:40:45;;;;;;;7.97;4.60;;;;;;;;;;4936336;29;20185;-61
2022/03/28 04:43:12;;;;;;;6.95;4.40;;;;;;;;;;4936137;29;20190;-61
2022/03/28 04:45:38;;;;;;;9.52;4.72;;;;;;;;;;4936005;29;20166;-61
2022/03/28 04:48:04;;;;;;;9.15;4.47;;;;;;;;;;4936161;29;20165;-61
2022/03/28 04:50:31;;;;;;;9.02;4.65;;;;;;;;;;4936156;29;20598;-60
2022/03/28 04:52:57;;;;;;;9.00;4.70;;;;;;;;;;4936283;29;20177;-60
2022/03/28 04:55:23;;;;;;;8.77;4.80;;;;;;;;;;4936714;29;20183;-60
2022/03/28 04:57:48;;;;;;;6.50;4.38;;;;;;;;;;4939489;29;20173;-60
2022/03/28 05:00:16;;;;;;;7.30;4.38;;;;;;;;;;4939551;29;20236;-61
2022/03/28 05:02:42;;;;;;;8.32;4.25;;;;;;;;;;4939661;29;20173;-60
2022/03/28 05:05:08;;;;;;;6.47;4.18;;;;;;;;;;4939343;29;20501;-61
2022/03/28 05:07:35;;;;;;;7.63;4.32;;;;;;;;;;4939278;29;20177;-61
2022/03/28 05:10:01;;;;;;;9.60;4.82;;;;;;;;;;4939167;29;20483;-61
2022/03/28 05:12:27;;;;;;;7.18;4.93;;;;;;;;;;4939537;29;20183;-60
2022/03/28 05:14:54;;;;;;;7.70;5.20;;;;;;;;;;4939217;29;20169;-61
2022/03/28 05:17:21;;;;;;;9.50;4.53;;;;;;;;;;4939121;29;20169;-61
2022/03/28 05:19:47;;;;;;;11.20;5.05;;;;;;;;;;4939018;29;20213;-61
2022/03/28 05:22:12;;;;;;;7.85;4.75;;;;;;;;;;4938172;29;20173;-61
2022/03/28 05:24:38;;;;;;;8.15;5.22;;;;;;;;;;4939206;29;20251;-61
2022/03/28 05:27:04;;;;;;;10.32;5.05;;;;;;;;;;4938824;29;20177;-59
2022/03/28 05:29:31;;;;;;;10.27;5.43;;;;;;;;;;4939023;29;20609;-62
2022/03/28 05:31:57;;;;;;;8.20;4.70;;;;;;;;;;4938998;29;20177;-60
2022/03/28 05:34:22;;;;;;;8.65;4.93;;;;;;;;;;4939051;29;20486;-62
2022/03/28 05:36:48;;;;;;;9.27;4.47;;;;;;;;;;4938608;29;20173;-59
2022/03/28 05:39:14;;;;;;;7.50;4.18;;;;;;;;;;4938571;29;20208;-60
2022/03/28 05:41:41;;;;;;;7.00;4.82;;;;;;;;;;4938672;29;20173;-60
2022/03/28 05:44:07;;;;;;;7.70;4.30;;;;;;;;;;4938511;29;20501;-60
2022/03/28 05:46:32;;;;;;;8.48;4.50;;;;;;;;;;4938301;29;20169;-60
2022/03/28 05:48:59;;;;;;;8.20;4.40;;;;;;;;;;4938325;29;20622;-60
2022/03/28 05:51:25;;;;;;;6.78;4.15;;;;;;;;;;4938543;29;20191;-60
2022/03/28 05:53:51;;;;;;;5.07;3.53;;;;;;;;;;4938557;29;20612;-60
2022/03/28 05:56:17;;;;;;;6.25;3.88;;;;;;;;;;4938205;29;20196;-60
2022/03/28 05:58:43;;;;;;;6.88;4.18;;;;;;;;;;4938503;29;20267;-60
2022/03/28 06:01:09;;;;;;;6.53;3.92;;;;;;;;;;4938238;29;20169;-61
2022/03/28 06:03:37;;;;;;;6.70;4.20;;;;;;;;;;4938116;29;20559;-60
2022/03/28 06:06:03;;;;;;;9.60;4.82;;;;;;;;;;4938073;29;20632;-60
2022/03/28 06:08:29;;;;;;;9.43;4.45;;;;;;;;;;4937759;29;20176;-60
2022/03/28 06:10:55;;;;;;;6.30;4.40;;;;;;;;;;4938887;29;20161;-60
2022/03/28 06:13:21;;;;;;;9.60;4.80;;;;;;;;;;4938349;29;20181;-60
2022/03/28 06:15:49;;;;;;;9.65;4.30;;;;;;;;;;4938490;29;20483;-60
2022/03/28 06:18:15;;;;;;;6.97;4.40;;;;;;;;;;4937755;29;20502;-61
2022/03/28 06:20:41;;;;;;;9.43;4.90;;;;;;;;;;4938616;29;20161;-60
2022/03/28 06:23:09;;;;;;;7.55;4.18;;;;;;;;;;4937893;29;20172;-60
2022/03/28 06:25:35;;;;;;;7.05;4.20;;;;;;;;;;4938160;29;20256;-60
2022/03/28 06:28:01;;;;;;;7.50;4.30;;;;;;;;;;4938028;29;20188;-61
2022/03/28 06:30:27;;;;;;;8.50;3.63;;;;;;;;;;4938197;29;20157;-60
2022/03/28 06:32:53;;;;;;;7.32;3.75;;;;;;;;;;4937759;29;20172;-60
2022/03/28 06:35:19;;;;;;;8.85;4.47;;;;;;;;;;4937749;29;20173;-61
2022/03/28 06:37:45;;;;;;;7.22;4.28;;;;;;;;;;4937622;29;20240;-60
2022/03/28 06:40:11;;;;;;;8.77;3.80;;;;;;;;;;4937780;29;20200;-60
2022/03/28 06:42:37;;;;;;;5.70;3.75;;;;;;;;;;4937771;29;20184;-61
2022/03/28 06:45:03;;;;;;;7.32;4.30;;;;;;;;;;4937442;29;20173;-60
2022/03/28 06:47:29;;;;;;;7.32;3.75;;;;;;;;;;4937165;29;20514;-60
2022/03/28 06:49:55;;;;;;;5.65;3.67;;;;;;;;;;4937393;29;20272;-60
2022/03/28 06:52:21;;;;;;;5.13;3.58;;;;;;;;;;4937195;29;20173;-61
2022/03/28 06:54:47;;;;;;;6.03;2.92;;;;;;;;;;4937240;29;20176;-61
2022/03/28 06:57:13;;;;;;;4.53;3.10;;;;;;;;;;4937322;29;20184;-61
2022/03/28 06:59:39;;;;;;;4.20;2.70;;;;;;;;;;4937045;29;20649;-60
2022/03/28 07:02:05;;;;;;;6.47;3.20;;;;;;;;;;4936506;29;20272;-61
2022/03/28 07:04:31;;;;;;;6.43;3.30;;;;;;;;;;4937010;29;20169;-60
2022/03/28 07:06:57;;;;;;;5.47;3.10;;;;;;;;;;4937519;29;20169;-60
2022/03/28 07:09:23;;;;;;;4.80;3.30;;;;;;;;;;4937545;29;20169;-60
2022/03/28 07:11:49;;;;;;;6.97;3.20;;;;;;;;;;4936901;29;20168;-60
2022/03/28 07:14:16;;;;;;;5.82;3.33;;;;;;;;;;4936686;29;20606;-60
2022/03/28 07:16:43;;;;;;;4.43;3.17;;;;;;;;;;4937216;29;20165;-60
2022/03/28 07:19:09;;;;;;;5.00;2.95;;;;;;;;;;4936274;29;20243;-60
2022/03/28 07:21:35;;;;;;;5.90;2.97;;;;;;;;;;4936684;29;20577;-61
2022/03/28 07:24:01;;;;;;;5.40;2.63;;;;;;;;;;4936686;29;20179;-60
2022/03/28 07:26:27;;;;;;;6.85;2.80;;;;;;;;;;4936744;29;20244;-61
2022/03/28 07:28:58;;;;;;;4.50;2.63;;;;;;;;;;4936530;29;20251;-61
2022/03/28 07:31:23;;;;;;;3.03;2.50;;;;;;;;;;4937018;29;20153;-60
2022/03/28 07:33:49;;;;;;;4.50;2.78;;;;;;;;;;4936605;29;20169;-61
2022/03/28 07:36:15;;;;;;;3.35;2.20;;;;;;;;;;4936626;29;20692;-60
2022/03/28 07:38:41;;;;;;;7.10;2.88;;;;;;;;;;4936685;29;20319;-61
2022/03/28 07:41:08;;;;;;;4.18;2.42;;;;;;;;;;4936697;29;20173;-60
2022/03/28 07:43:34;;;;;;;2.50;2.03;;;;;;;;;;4936875;29;20269;-61
2022/03/28 07:46:00;;;;;;;3.05;2.25;;;;;;;;;;4936905;29;20260;-60
2022/03/28 07:48:27;;;;;;;3.33;2.30;;;;;;;;;;4936435;29;20169;-60
2022/03/28 07:50:53;;;;;;;2.25;1.85;;;;;;;;;;4936499;29;20173;-61
2022/03/28 07:53:19;;;;;;;4.28;1.90;;;;;;;;;;4936978;29;20177;-60
2022/03/28 07:55:45;;;;;;;3.95;2.20;;;;;;;;;;4937471;29;20172;-60
2022/03/28 07:58:12;;;;;;;3.83;2.15;;;;;;;;;;4936725;29;20228;-60
2022/03/28 08:00:40;;;;;;;4.25;2.28;;;;;;;;;;4936059;29;20488;-61
2022/03/28 08:03:06;;;;;;;4.18;2.28;;;;;;;;;;4936567;29;20601;-61
2022/03/28 08:05:32;;;;;;;3.60;1.90;;;;;;;;;;4936337;29;20173;-61
2022/03/28 08:07:58;;;;;;;5.15;2.00;;;;;;;;;;4936402;29;20157;-61
2022/03/28 08:10:25;;;;;;;2.85;1.88;;;;;;;;;;4936288;29;20172;-61
2022/03/28 08:12:50;;;;;;;4.07;2.42;;;;;;;;;;4936539;29;20252;-61
2022/03/28 08:15:18;;;;;;;3.95;2.15;;;;;;;;;;4936402;29;20192;-61
2022/03/28 08:17:45;;;;;;;5.45;2.10;;;;;;;;;;4937504;29;20169;-61
2022/03/28 08:20:12;;;;;;;4.07;2.08;;;;;;;;;;4936390;29;20189;-60
2022/03/28 08:22:39;;;;;;;2.22;1.55;;;;;;;;;;4936520;29;20243;-61
2022/03/28 08:25:05;;;;;;;3.17;2.08;;;;;;;;;;4936234;29;20168;-61
2022/03/28 08:27:31;;;;;;;3.90;1.90;;;;;;;;;;4939236;29;20173;-61
2022/03/28 08:29:57;;;;;;;3.50;2.17;;;;;;;;;;4937382;29;20418;-62
2022/03/28 08:32:23;;;;;;;3.67;1.90;;;;;;;;;;4939586;29;20173;-62
2022/03/28 08:34:50;;;;;;;3.70;1.92;;;;;;;;;;4939604;29;20232;-62
2022/03/28 08:37:16;;;;;;;3.35;1.70;;;;;;;;;;4939863;29;20558;-62
2022/03/28 08:39:46;;;;;;;2.95;2.05;;;;;;;;;;4939856;29;20559;-62
2022/03/28 08:42:13;;;;;;;2.28;1.67;;;;;;;;;;4939548;29;20594;-62
2022/03/28 08:44:39;;;;;;;3.80;2.20;;;;;;;;;;4939625;29;20169;-62
2022/03/28 08:47:05;;;;;;;5.80;2.30;;;;;;;;;;4939340;29;20235;-62
2022/03/28 08:49:31;;;;;;;2.72;2.00;;;;;;;;;;4939502;29;20184;-62
2022/03/28 08:51:57;;;;;;;4.30;2.30;;;;;;;;;;4939337;29;20184;-62
2022/03/28 08:54:23;;;;;;;3.15;1.90;;;;;;;;;;4939432;29;20173;-62
2022/03/28 08:56:49;;;;;;;2.75;2.20;;;;;;;;;;4939430;29;20224;-60
2022/03/28 08:59:15;;;;;;;2.67;2.15;;;;;;;;;;4939223;29;20555;-62
2022/03/28 09:01:42;;;;;;;3.58;2.33;;;;;;;;;;4939547;29;20200;-62
2022/03/28 09:04:09;;;;;;;5.07;2.15;;;;;;;;;;4939327;29;20166;-62
2022/03/28 09:06:38;;;;;;;2.13;1.80;;;;;;;;;;4939522;29;20573;-59
2022/03/28 09:09:10;;;;;;;4.75;2.13;;;;;;;;;;4939142;29;20505;-62
2022/03/28 09:11:36;;;;;;;3.17;2.70;;;;;;;;;;4939375;29;20177;-61
2022/03/28 09:14:02;;;;;;;3.05;2.70;;;;;;;;;;4939296;29;20196;-62
2022/03/28 09:16:31;;;;;;;4.03;2.60;;;;;;;;;;4939002;29;20172;-60
2022/03/28 09:18:58;;;;;;;4.15;2.85;;;;;;;;;;4937838;29;20432;-62
2022/03/28 09:21:25;;;;;;;3.80;2.60;;;;;;;;;;4939248;29;20722;-62
2022/03/28 09:23:52;;;;;;;4.97;2.80;;;;;;;;;;4939014;29;20179;-61
2022/03/28 09:26:22;;;;;;;3.45;2.65;;;;;;;;;;4938795;29;20175;-62
2022/03/28 09:28:49;;;;;;;4.13;2.58;;;;;;;;;;4938620;29;20413;-62
2022/03/28 09:31:18;;;;;;;7.03;2.63;;;;;;;;;;4938751;29;20213;-63
2022/03/28 09:33:52;;;;;;;5.78;2.78;;;;;;;;;;4939572;29;20180;-60
2022/03/28 09:36:18;;;;;;;3.22;2.45;;;;;;;;;;4938829;29;20235;-60
2022/03/28 09:38:56;;;;;;;5.13;2.88;;;;;;;;;;4938608;29;20905;-61
2022/03/28 09:41:28;;;;;;;4.60;2.70;;;;;;;;;;4938480;29;20180;-63
2022/03/28 09:43:54;;;;;;;4.32;2.58;;;;;;;;;;4939500;29;20489;-62
2022/03/28 09:46:25;;;;;;;4.10;2.30;;;;;;;;;;4939147;29;20201;-62
2022/03/28 09:48:51;;;;;;;5.35;2.50;;;;;;;;;;4939734;29;20458;-62
2022/03/28 09:51:19;;;;;;;3.72;2.22;;;;;;;;;;4939352;29;20179;-62
2022/03/28 09:53:44;;;;;;;5.63;2.63;;;;;;;;;;4939147;29;20572;-62
2022/03/28 09:56:12;;;;;;;3.03;2.60;;;;;;;;;;4939003;29;20181;-62
2022/03/28 09:58:46;;;;;;;5.05;2.38;;;;;;;;;;4938637;29;20279;-62
2022/03/28 10:01:16;;;;;;;7.63;2.92;;;;;;;;;;4939255;29;20161;-62
2022/03/28 10:03:44;;;;;;;3.78;2.45;;;;;;;;;;4939136;29;20200;-62
2022/03/28 10:06:10;;;;;;;3.58;2.40;;;;;;;;;;4939511;29;20621;-62
2022/03/28 10:08:37;;;;;;;3.25;2.30;;;;;;;;;;4938851;29;20611;-62
2022/03/28 10:11:03;;;;;;;7.45;2.80;;;;;;;;;;4939229;29;20264;-62
2022/03/28 10:13:30;;;;;;;3.65;2.60;;;;;;;;;;4938691;29;20605;-62
2022/03/28 10:15:56;;;;;;;2.83;2.53;;;;;;;;;;4938064;29;20188;-62
2022/03/28 10:18:22;;;;;;;3.78;2.50;;;;;;;;;;4938221;29;20212;-62
2022/03/28 10:20:54;;;;;;;4.13;3.00;;;;;;;;;;4938443;29;20514;-62
2022/03/28 10:23:21;;;;;;;3.20;2.30;;;;;;;;;;4938536;29;20509;-62
2022/03/28 10:25:48;;;;;;;6.00;2.70;;;;;;;;;;4938653;29;20362;-62
2022/03/28 10:28:18;;;;;;;5.38;2.60;;;;;;;;;;4937926;29;20205;-62
2022/03/28 10:30:44;;;;;;;3.55;2.92;;;;;;;;;;4938656;29;20163;-62
2022/03/28 10:33:11;;;;;;;3.78;2.80;;;;;;;;;;4938922;29;20168;-62
2022/03/28 10:35:38;;;;;;;4.97;2.97;;;;;;;;;;4939110;29;20684;-62
2022/03/28 10:38:17;;;;;;;7.05;3.80;;;;;;;;;;4938885;29;20260;-62
2022/03/28 10:41:00;;;;;;;7.45;3.20;;;;;;;;;;4938930;29;20173;-62
2022/03/28 10:43:29;;;;;;;7.65;3.33;;;;;;;;;;4938188;29;20664;-62
2022/03/28 10:45:56;;;;;;;6.22;3.08;;;;;;;;;;4938527;29;20181;-62
2022/03/28 10:48:36;;;;;;;5.53;3.15;;;;;;;;;;4938469;29;20196;-61
2022/03/28 10:51:07;;;;;;;4.50;3.00;;;;;;;;;;4937797;29;20265;-61
2022/03/28 10:53:39;;;;;;;6.57;3.30;;;;;;;;;;4936788;29;20197;-60
2022/03/28 10:56:07;;;;;;;4.80;2.92;;;;;;;;;;4938035;29;20179;-62
2022/03/28 10:58:40;;;;;;;6.63;3.50;;;;;;;;;;4938817;29;20192;-62
2022/03/28 11:01:09;;;;;;;7.03;3.10;;;;;;;;;;4938692;29;20236;-62
2022/03/28 11:03:48;;;;;;;8.02;3.63;;;;;;;;;;4938356;29;20204;-62
2022/03/28 11:06:15;;;;;;;5.60;4.00;;;;;;;;;;4938552;29;20609;-63
2022/03/28 11:08:44;;;;;;;5.38;3.80;;;;;;;;;;4938286;29;20553;-62
2022/03/28 11:11:14;;;;;;;10.43;4.38;;;;;;;;;;4937895;29;20169;-61
2022/03/28 11:13:39;;;;;;;7.72;4.00;;;;;;;;;;4937883;29;20169;-63
2022/03/28 11:16:05;;;;;;;5.50;3.67;;;;;;;;;;4938184;29;20232;-61
2022/03/28 11:18:31;;;;;;;6.15;3.83;;;;;;;;;;4937403;29;20559;-63
2022/03/28 11:20:57;;;;;;;5.53;3.80;;;;;;;;;;4937739;29;20408;-63
2022/03/28 11:23:23;;;;;;;6.70;3.85;;;;;;;;;;4936958;29;20169;-62
2022/03/28 11:25:51;;;;;;;5.97;3.70;;;;;;;;;;4937014;29;20192;-62
2022/03/28 11:28:26;;;;;;;5.45;4.10;;;;;;;;;;4936900;29;20504;-63
2022/03/28 11:30:58;;;;;;;4.60;3.70;;;;;;;;;;4937139;29;20172;-62
2022/03/28 11:33:29;;;;;;;8.57;4.05;;;;;;;;;;4936936;29;20643;-62
2022/03/28 11:35:58;;;;;;;7.00;4.22;;;;;;;;;;4936662;29;20425;-62
2022/03/28 11:38:26;;;;;;;6.10;4.13;;;;;;;;;;4936445;29;20449;-62
2022/03/28 11:40:53;;;;;;;5.35;4.20;;;;;;;;;;4936986;29;20505;-63
2022/03/28 11:43:26;;;;;;;7.65;5.00;;;;;;;;;;4935738;29;20449;-63
2022/03/28 11:45:54;;;;;;;6.45;4.43;;;;;;;;;;4936619;29;20424;-63
2022/03/28 11:48:20;;;;;;;6.47;5.18;;;;;;;;;;4935675;29;20417;-62
2022/03/28 11:50:47;;;;;;;7.32;4.20;;;;;;;;;;4937391;29;20200;-62
2022/03/28 11:53:17;;;;;;;5.57;4.20;;;;;;;;;;4937427;29;20177;-62
2022/03/28 11:55:47;;;;;;;5.50;4.28;;;;;;;;;;4937554;29;20169;-63
2022/03/28 11:58:16;;;;;;;6.93;4.18;;;;;;;;;;4937534;29;20195;-63
2022/03/28 12:00:45;;;;;;;5.72;3.97;;;;;;;;;;4937587;29;20504;-63
2022/03/28 12:03:12;;;;;;;8.38;4.55;;;;;;;;;;4937380;29;20512;-60
2022/03/28 12:05:39;;;;;;;8.18;4.35;;;;;;;;;;4937622;29;20161;-63
2022/03/28 12:08:15;;;;;;;5.72;3.75;;;;;;;;;;4938567;29;20188;-63
2022/03/28 12:10:44;;;;;;;5.07;3.85;;;;;;;;;;4937511;29;20153;-62
2022/03/28 12:13:11;;;;;;;5.05;3.17;;;;;;;;;;4938917;29;20259;-63
2022/03/28 12:15:38;;;;;;;8.07;4.90;;;;;;;;;;4936824;29;20769;-63
2022/03/28 12:18:06;;;;;;;5.22;4.20;;;;;;;;;;4938312;29;20216;-63
2022/03/28 12:20:33;;;;;;;5.10;4.20;;;;;;;;;;4936240;29;20409;-63
2022/03/28 12:23:01;;;;;;;4.93;3.88;;;;;;;;;;4936709;29;20209;-63
2022/03/28 12:25:35;;;;;;;7.20;4.25;;;;;;;;;;4936368;29;20196;-62
2022/03/28 12:28:03;;;;;;;6.80;3.88;;;;;;;;;;4936259;29;20168;-62
2022/03/28 12:30:30;;;;;;;5.50;3.78;;;;;;;;;;4936829;29;20561;-63
2022/03/28 12:32:56;;;;;;;5.18;3.92;;;;;;;;;;4937494;29;20433;-63
2022/03/28 12:35:23;;;;;;;5.22;4.30;;;;;;;;;;4938090;29;20180;-63
2022/03/28 12:38:03;;;;;;;5.85;4.30;;;;;;;;;;4936654;29;20416;-62
2022/03/28 12:40:30;;;;;;;7.28;4.05;;;;;;;;;;4936742;29;20184;-60
2022/03/28 12:42:56;;;;;;;5.45;4.25;;;;;;;;;;4936311;29;20437;-62
2022/03/28 12:45:25;;;;;;;5.18;3.97;;;;;;;;;;4936502;29;20264;-62
2022/03/28 12:48:02;;;;;;;5.82;3.67;;;;;;;;;;4936305;29;20169;-62
2022/03/28 12:50:29;;;;;;;6.38;4.10;;;;;;;;;;4936513;29;20169;-61
2022/03/28 12:53:15;;;;;;;4.93;3.80;;;;;;;;;;4936743;29;20343;-63
2022/03/28 12:55:43;;;;;;;7.35;4.20;;;;;;;;;;4938321;29;20397;-62
2022/03/28 12:58:09;;;;;;;5.03;3.50;;;;;;;;;;4939111;29;20173;-62
2022/03/28 13:00:35;;;;;;;5.45;3.80;;;;;;;;;;4936467;29;20177;-62
2022/03/28 13:03:02;;;;;;;5.53;3.78;;;;;;;;;;4937510;29;20172;-62
2022/03/28 13:05:29;;;;;;;5.93;4.28;;;;;;;;;;4937381;29;20203;-62
2022/03/28 13:08:03;;;;;;;6.30;3.80;;;;;;;;;;4937510;29;20173;-62
2022/03/28 13:10:32;;;;;;;7.47;4.18;;;;;;;;;;4937487;29;20186;-61
2022/03/28 13:12:58;;;;;;;5.55;3.95;;;;;;;;;;4936952;29;20264;-62
2022/03/28 13:15:28;;;;;;;6.00;4.43;;;;;;;;;;4937314;29;20179;-63
2022/03/28 13:18:04;;;;;;;7.45;4.63;;;;;;;;;;4941100;29;20184;-63
2022/03/28 13:20:30;;;;;;;5.05;4.15;;;;;;;;;;4942058;29;20497;-63
2022/03/28 13:22:58;;;;;;;8.98;4.40;;;;;;;;;;4942193;29;20180;-63
2022/03/28 13:25:24;;;;;;;6.00;4.22;;;;;;;;;;4941904;29;20507;-63
2022/03/28 13:28:04;;;;;;;7.45;4.45;;;;;;;;;;4942303;29;20484;-62
2022/03/28 13:30:35;;;;;;;6.38;4.18;;;;;;;;;;4942151;29;20231;-63
2022/03/28 13:33:01;;;;;;;8.95;4.15;;;;;;;;;;4941867;29;20180;-63
2022/03/28 13:35:27;;;;;;;7.82;4.88;;;;;;;;;;4941736;29;20177;-63
2022/03/28 13:37:55;;;;;;;9.73;4.60;;;;;;;;;;4941287;29;20165;-63
2022/03/28 13:40:21;;;;;;;6.35;4.72;;;;;;;;;;4941907;29;20271;-62
2022/03/28 13:42:47;;;;;;;7.93;4.93;;;;;;;;;;4941458;29;20169;-63
2022/03/28 13:45:13;;;;;;;6.97;4.63;;;;;;;;;;4941637;29;20169;-62
2022/03/28 13:47:39;;;;;;;7.10;4.10;;;;;;;;;;4942536;29;20204;-62
2022/03/28 13:50:05;;;;;;;6.20;4.40;;;;;;;;;;4940979;29;20514;-62
2022/03/28 13:52:31;;;;;;;7.68;4.68;;;;;;;;;;4940935;29;20177;-63
2022/03/28 13:54:58;;;;;;;5.68;4.28;;;;;;;;;;4941481;29;20177;-62
2022/03/28 13:57:26;;;;;;;8.88;5.75;;;;;;;;;;4941069;29;20165;-62
2022/03/28 13:59:52;;;;;;;7.97;5.03;;;;;;;;;;4940737;29;20195;-62
2022/03/28 14:02:19;;;;;;;9.80;5.35;;;;;;;;;;4940972;29;20173;-63
2022/03/28 14:04:45;;;;;;;8.32;4.55;;;;;;;;;;4940867;29;20292;-62
2022/03/28 14:07:10;;;;;;;6.85;5.20;;;;;;;;;;4941164;29;20177;-62
2022/03/28 14:09:36;;;;;;;7.18;5.50;;;;;;;;;;4940630;29;20204;-61
2022/03/28 14:12:02;;;;;;;6.78;5.28;;;;;;;;;;4940538;29;20172;-62
2022/03/28 14:14:28;;;;;;;6.60;5.20;;;;;;;;;;4940939;29;20165;-62
2022/03/28 14:16:54;;;;;;;7.15;5.18;;;;;;;;;;4941275;29;20246;-63
2022/03/28 14:19:22;;;;;;;7.25;5.18;;;;;;;;;;4939780;29;20250;-62
2022/03/28 14:21:48;;;;;;;9.63;5.40;;;;;;;;;;4940420;29;20525;-62
2022/03/28 14:24:14;;;;;;;7.43;5.70;;;;;;;;;;4940872;29;20165;-62
2022/03/28 14:26:40;;;;;;;7.35;5.03;;;;;;;;;;4940890;29;20272;-61
2022/03/28 14:29:06;;;;;;;13.00;5.70;;;;;;;;;;4939434;29;20260;-61
2022/03/28 14:31:32;;;;;;;8.00;5.00;;;;;;;;;;4941253;29;20168;-62
2022/03/28 14:33:57;;;;;;;12.10;6.07;;;;;;;;;;4941505;29;20493;-61
2022/03/28 14:36:24;;;;;;;8.20;6.03;;;;;;;;;;4940601;29;20169;-62
2022/03/28 14:38:50;;;;;;;10.30;6.03;;;;;;;;;;4940682;29;20493;-62
2022/03/28 14:41:16;;;;;;;8.15;5.63;;;;;;;;;;4940311;29;20183;-62